createdAt,value
2018-10-16T00:03:14.225Z,11.57
2018-10-16T00:06:02.616Z,11.90
2018-10-16T00:08:54.606Z,14.15
2018-10-16T00:11:44.741Z,12.90
2018-10-16T00:14:32.580Z,12.13
2018-10-16T00:17:20.152Z,15.23
2018-10-16T00:20:07.224Z,11.50
2018-10-16T00:22:54.637Z,15.50
2018-10-16T00:25:46.660Z,14.20
2018-10-16T00:28:36.940Z,16.75
2018-10-16T00:34:31.222Z,13.93
2018-10-16T00:37:20.247Z,19.12
2018-10-16T00:40:09.366Z,14.87
2018-10-16T00:46:03.218Z,15.38
2018-10-16T00:48:51.250Z,15.32
2018-10-16T00:51:39.002Z,21.52
2018-10-16T00:57:32.557Z,14.65
2018-10-16T01:00:20.816Z,13.18
2018-10-16T01:03:08.959Z,13.23
2018-10-16T01:12:10.191Z,9.63
2018-10-16T01:14:58.682Z,13.50
2018-10-16T01:17:47.177Z,14.65
2018-10-16T01:20:35.129Z,16.85
2018-10-16T01:26:29.449Z,13.50
2018-10-16T01:29:21.435Z,12.05
2018-10-16T01:32:08.679Z,10.90
2018-10-16T01:35:01.290Z,15.32
2018-10-16T01:37:49.133Z,11.55
2018-10-16T01:40:39.015Z,10.05
2018-10-16T01:43:27.780Z,19.90
2018-10-16T01:46:15.965Z,17.77
2018-10-16T01:49:03.617Z,13.43
2018-10-16T01:51:54.397Z,12.18
2018-10-16T01:57:50.713Z,12.32
2018-10-16T02:00:39.561Z,15.35
2018-10-16T02:06:33.146Z,16.05
2018-10-16T02:09:20.677Z,16.55
2018-10-16T02:12:08.585Z,17.15
2018-10-16T02:14:56.352Z,12.80
2018-10-16T02:17:43.689Z,13.98
2018-10-16T02:20:30.827Z,11.52
2018-10-16T02:23:17.941Z,16.30
2018-10-16T02:26:05.203Z,12.63
2018-10-16T02:28:53.043Z,16.00
2018-10-16T02:31:40.340Z,11.75
2018-10-16T02:34:27.942Z,17.87
2018-10-16T02:37:15.358Z,12.55
2018-10-16T02:40:03.677Z,15.23
2018-10-16T02:42:50.721Z,13.68
2018-10-16T02:48:44.702Z,12.45
2018-10-16T02:51:32.920Z,16.48
2018-10-16T02:54:21.158Z,15.25
2018-10-16T02:57:09.580Z,17.77
2018-10-16T02:59:58.474Z,19.50
2018-10-16T03:05:50.608Z,19.60
2018-10-16T03:11:44.459Z,16.90
2018-10-16T03:14:32.619Z,16.55
2018-10-16T03:17:20.533Z,14.00
2018-10-16T03:20:16.412Z,13.48
2018-10-16T03:23:04.024Z,15.73
2018-10-16T03:25:53.262Z,15.40
2018-10-16T03:34:53.809Z,14.13
2018-10-16T03:37:41.448Z,15.00
2018-10-16T03:40:31.977Z,12.63
2018-10-16T03:55:52.669Z,16.60
2018-10-16T03:58:40.347Z,13.57
2018-10-16T04:01:29.775Z,14.40
2018-10-16T04:04:18.606Z,14.30
2018-10-16T04:10:10.704Z,17.80
2018-10-16T04:12:58.088Z,16.05
2018-10-16T04:15:47.817Z,13.38
2018-10-16T04:18:35.516Z,13.48
2018-10-16T04:24:29.951Z,12.10
2018-10-16T04:27:17.405Z,13.50
2018-10-16T04:30:06.165Z,18.33
2018-10-16T04:32:54.785Z,20.27
2018-10-16T04:35:43.555Z,15.67
2018-10-16T04:38:41.712Z,15.32
2018-10-16T04:41:34.787Z,17.52
2018-10-16T04:47:31.402Z,16.80
2018-10-16T04:50:20.903Z,17.57
2018-10-16T04:53:08.421Z,15.50
2018-10-16T04:59:25.355Z,15.63
2018-10-16T05:02:13.808Z,13.77
2018-10-16T05:05:19.829Z,14.98
2018-10-16T05:08:17.858Z,15.27
2018-10-16T05:11:19.120Z,14.02
2018-10-16T05:14:08.349Z,17.45
2018-10-16T05:16:56.873Z,15.80
2018-10-16T05:19:44.419Z,15.73
2018-10-16T05:22:33.440Z,18.08
2018-10-16T05:25:21.211Z,17.77
2018-10-16T05:28:09.071Z,14.63
2018-10-16T05:30:56.476Z,17.70
2018-10-16T05:33:56.580Z,15.25
2018-10-16T05:39:50.323Z,13.82
2018-10-16T05:42:40.670Z,13.77
2018-10-16T05:48:35.250Z,14.82
2018-10-16T05:54:30.475Z,14.60
2018-10-16T06:00:32.131Z,15.50
2018-10-16T06:16:05.333Z,18.40
2018-10-16T06:19:02.747Z,21.73
2018-10-16T06:37:42.244Z,20.80
2018-10-16T06:50:07.146Z,19.40
2018-10-16T07:08:58.122Z,20.83
2018-10-16T07:21:30.093Z,17.90
2018-10-16T07:27:27.978Z,20.37
2018-10-16T07:40:14.720Z,16.35
2018-10-16T07:43:07.163Z,19.42
2018-10-16T08:47:03.066Z,20.15
2018-10-16T08:56:32.401Z,26.80
2018-10-16T08:59:31.824Z,27.70
2018-10-16T09:02:21.177Z,25.42
2018-10-16T09:08:18.892Z,32.15
2018-10-16T09:11:06.963Z,30.12
2018-10-16T09:20:21.026Z,39.20
2018-10-16T09:23:17.583Z,26.02
2018-10-16T09:26:05.308Z,33.67
2018-10-16T09:29:02.367Z,26.12
2018-10-16T09:34:59.076Z,29.90
2018-10-16T09:37:50.512Z,22.27
2018-10-16T09:40:40.960Z,29.60
2018-10-16T09:43:29.071Z,29.15
2018-10-16T09:46:16.327Z,26.52
2018-10-16T09:49:06.490Z,23.83
2018-10-16T09:51:54.895Z,25.83
2018-10-16T09:54:44.983Z,23.25
2018-10-16T09:57:32.181Z,23.92
2018-10-16T10:00:22.434Z,23.77
2018-10-16T10:03:12.169Z,23.60
2018-10-16T10:06:00.366Z,21.85
2018-10-16T10:08:48.280Z,18.83
2018-10-16T10:11:36.026Z,24.23
2018-10-16T10:14:23.665Z,19.98
2018-10-16T10:17:13.721Z,22.33
2018-10-16T10:20:09.373Z,19.77
2018-10-16T10:22:56.856Z,26.45
2018-10-16T10:25:46.559Z,24.25
2018-10-16T10:28:34.084Z,23.17
2018-10-16T10:31:21.721Z,23.25
2018-10-16T10:34:12.770Z,22.73
2018-10-16T10:37:01.014Z,19.75
2018-10-16T10:39:49.827Z,24.00
2018-10-16T10:42:38.544Z,23.33
2018-10-16T10:45:25.902Z,25.60
2018-10-16T10:48:15.314Z,18.87
2018-10-16T10:51:04.623Z,21.90
2018-10-16T10:53:52.691Z,21.48
2018-10-16T10:56:42.266Z,20.48
2018-10-16T11:02:46.496Z,18.00
2018-10-16T11:05:41.037Z,24.05
2018-10-16T11:11:37.141Z,22.42
2018-10-16T11:14:33.754Z,19.75
2018-10-16T11:23:47.068Z,22.35
2018-10-16T11:26:37.447Z,26.12
2018-10-16T11:32:36.143Z,21.73
2018-10-16T11:35:33.636Z,19.83
2018-10-16T11:38:23.988Z,18.57
2018-10-16T11:47:36.993Z,21.50
2018-10-16T11:53:47.394Z,25.70
2018-10-16T11:56:37.163Z,16.25
2018-10-16T11:59:27.233Z,17.25
2018-10-16T12:02:30.959Z,19.65
2018-10-16T12:05:28.846Z,17.05
2018-10-16T12:08:31.733Z,17.60
2018-10-16T12:11:29.252Z,21.40
2018-10-16T12:14:20.443Z,19.02
2018-10-16T12:20:17.507Z,19.40
2018-10-16T12:29:37.386Z,23.25
2018-10-16T12:32:30.593Z,27.65
2018-10-16T12:38:31.959Z,25.42
2018-10-16T12:41:22.851Z,21.70
2018-10-16T12:56:57.291Z,20.37
2018-10-16T13:00:03.845Z,18.12
2018-10-16T13:02:58.277Z,21.20
2018-10-16T13:05:49.969Z,23.45
2018-10-16T13:08:45.822Z,23.77
2018-10-16T13:11:38.464Z,25.77
2018-10-16T13:14:29.657Z,18.23
2018-10-16T13:17:22.483Z,21.87
2018-10-16T13:39:25.167Z,24.12
2018-10-16T13:45:33.654Z,19.67
2018-10-16T13:51:31.629Z,24.12
2018-10-16T13:54:19.341Z,26.20
2018-10-16T13:57:15.947Z,28.42
2018-10-16T14:03:22.842Z,23.73
2018-10-16T14:06:17.133Z,18.67
2018-10-16T14:12:29.803Z,24.12
2018-10-16T14:15:23.510Z,21.40
2018-10-16T14:27:54.088Z,21.48
2018-10-16T14:30:46.427Z,15.90
2018-10-16T14:36:47.609Z,27.67
2018-10-16T14:39:45.506Z,32.45
2018-10-16T14:46:01.819Z,26.73
2018-10-16T14:48:52.281Z,24.65
2018-10-16T14:54:55.631Z,20.20
2018-10-16T15:01:01.157Z,27.98
2018-10-16T15:03:51.874Z,18.63
2018-10-16T15:06:46.486Z,22.20
2018-10-16T15:09:37.805Z,23.83
2018-10-16T15:15:39.153Z,22.95
2018-10-16T15:31:23.122Z,15.25
2018-10-16T15:37:21.389Z,22.67
2018-10-16T15:40:22.763Z,17.15
2018-10-16T15:49:45.991Z,19.62
2018-10-16T15:52:33.721Z,19.20
2018-10-16T15:55:21.227Z,20.05
2018-10-16T15:58:09.091Z,26.08
2018-10-16T16:00:59.036Z,21.00
2018-10-16T16:03:54.553Z,19.45
2018-10-16T16:06:42.458Z,19.37
2018-10-16T16:09:35.639Z,18.77
2018-10-16T16:25:11.177Z,17.23
2018-10-16T16:31:30.568Z,27.95
2018-10-16T16:34:20.973Z,26.50
2018-10-16T16:37:18.565Z,23.38
2018-10-16T16:40:07.705Z,22.73
2018-10-16T16:43:10.007Z,23.50
2018-10-16T16:52:31.302Z,22.33
2018-10-16T16:55:21.736Z,20.52
2018-10-16T16:58:18.664Z,20.73
2018-10-16T17:10:47.264Z,22.58
2018-10-16T17:13:38.633Z,21.83
2018-10-16T17:16:28.182Z,28.62
2018-10-16T17:19:17.239Z,29.37
2018-10-16T17:22:08.905Z,27.30
2018-10-16T17:24:57.953Z,24.17
2018-10-16T17:31:05.067Z,20.25
2018-10-16T17:37:08.253Z,26.52
2018-10-16T17:43:12.825Z,25.52
2018-10-16T17:52:24.651Z,20.67
2018-10-16T18:04:55.701Z,23.77
2018-10-16T18:11:07.750Z,23.57
2018-10-16T18:29:55.901Z,21.30
2018-10-16T18:32:48.989Z,23.58
2018-10-16T18:35:41.939Z,25.77
2018-10-16T18:38:39.933Z,25.40
2018-10-16T18:41:30.160Z,22.37
2018-10-16T18:47:34.938Z,27.20
2018-10-16T19:03:05.158Z,29.05
2018-10-16T19:09:05.685Z,27.02
2018-10-16T19:11:55.937Z,26.45
2018-10-16T19:14:52.568Z,31.35
2018-10-16T19:17:46.574Z,23.95
2018-10-16T19:30:04.185Z,27.52
2018-10-16T19:33:04.381Z,21.17
2018-10-16T19:35:57.669Z,31.98
2018-10-16T19:41:58.173Z,35.35
2018-10-16T20:06:52.369Z,28.48
2018-10-16T20:15:53.659Z,33.85
2018-10-16T20:18:41.319Z,32.75
2018-10-16T20:21:31.844Z,30.02
2018-10-16T20:27:27.957Z,33.55
2018-10-16T20:30:18.249Z,29.85
2018-10-16T20:33:05.888Z,28.50
2018-10-16T20:35:56.506Z,26.35
2018-10-16T20:45:08.806Z,25.25
2018-10-16T20:47:59.670Z,30.35
2018-10-16T20:50:55.290Z,31.40
2018-10-16T20:53:45.873Z,27.73
2018-10-16T20:56:33.350Z,36.80
2018-10-16T20:59:29.038Z,28.27
2018-10-16T21:02:17.263Z,25.92
2018-10-16T21:05:06.019Z,28.65
2018-10-16T21:07:53.460Z,29.52
2018-10-16T21:10:55.515Z,31.92
2018-10-16T21:20:09.323Z,32.45
2018-10-16T21:22:56.995Z,32.75
2018-10-16T21:25:46.578Z,33.50
2018-10-16T21:31:40.840Z,29.25
2018-10-16T21:37:34.976Z,31.52
2018-10-16T21:40:22.468Z,32.43
2018-10-16T21:43:12.065Z,34.20
2018-10-16T21:49:08.310Z,30.67
2018-10-16T21:55:03.466Z,27.50
2018-10-16T21:57:52.037Z,29.37
2018-10-16T22:00:40.157Z,39.00
2018-10-16T22:03:30.551Z,30.77
2018-10-16T22:06:18.050Z,31.77
2018-10-16T22:09:07.032Z,33.28
2018-10-16T22:18:09.519Z,30.95
2018-10-16T22:24:04.274Z,28.17
2018-10-16T22:26:52.114Z,30.73
2018-10-16T22:32:45.799Z,31.13
2018-10-16T22:35:33.132Z,31.30
2018-10-16T22:47:41.124Z,37.03
2018-10-16T22:50:28.886Z,34.80
2018-10-16T22:53:16.676Z,39.67
2018-10-16T22:56:05.049Z,35.88
2018-10-16T22:58:52.596Z,36.90
2018-10-16T23:01:40.768Z,33.03
2018-10-16T23:07:41.708Z,33.93
2018-10-16T23:10:29.041Z,31.95
2018-10-16T23:13:16.861Z,31.57
2018-10-16T23:16:21.087Z,31.60
2018-10-16T23:19:08.799Z,32.35
2018-10-16T23:22:04.961Z,28.00
2018-10-16T23:43:45.110Z,33.10
2018-10-16T23:46:40.003Z,29.43
2018-10-16T23:49:35.570Z,33.83
2018-10-16T23:52:23.145Z,34.97
2018-10-16T23:55:11.466Z,32.30
2018-10-16T23:57:58.935Z,30.50
